sensor_id;sensor_type;location;lat;lon;timestamp;P1;durP1;ratioP1;P2;durP2;ratioP2
29550;SDS011;16488;52.396;10.696;2022-12-07T00:01:10;54.67;;;29.15;;
29550;SDS011;16488;52.396;10.696;2022-12-07T00:03:37;57.30;;;30.13;;
29550;SDS011;16488;52.396;10.696;2022-12-07T00:06:03;62.85;;;28.20;;
29550;SDS011;16488;52.396;10.696;2022-12-07T00:08:30;59.15;;;28.60;;
29550;SDS011;16488;52.396;10.696;2022-12-07T00:11:00;61.03;;;29.88;;
29550;SDS011;16488;52.396;10.696;2022-12-07T00:13:27;60.50;;;31.30;;
29550;SDS011;16488;52.396;10.696;2022-12-07T00:15:53;61.70;;;30.50;;
29550;SDS011;16488;52.396;10.696;2022-12-07T00:18:18;63.60;;;29.40;;
29550;SDS011;16488;52.396;10.696;2022-12-07T00:20:44;56.10;;;29.77;;
29550;SDS011;16488;52.396;10.696;2022-12-07T00:23:10;56.05;;;29.98;;
29550;SDS011;16488;52.396;10.696;2022-12-07T00:25:36;59.28;;;30.80;;
29550;SDS011;16488;52.396;10.696;2022-12-07T00:28:02;59.40;;;30.30;;
29550;SDS011;16488;52.396;10.696;2022-12-07T00:32:54;63.53;;;28.58;;
29550;SDS011;16488;52.396;10.696;2022-12-07T00:35:20;59.92;;;29.83;;
29550;SDS011;16488;52.396;10.696;2022-12-07T00:37:46;58.33;;;29.52;;
29550;SDS011;16488;52.396;10.696;2022-12-07T00:40:12;59.03;;;30.10;;
29550;SDS011;16488;52.396;10.696;2022-12-07T00:42:38;62.45;;;30.48;;
29550;SDS011;16488;52.396;10.696;2022-12-07T00:45:04;63.05;;;29.45;;
29550;SDS011;16488;52.396;10.696;2022-12-07T00:49:56;65.47;;;30.70;;
29550;SDS011;16488;52.396;10.696;2022-12-07T00:52:22;60.83;;;29.38;;
29550;SDS011;16488;52.396;10.696;2022-12-07T00:54:48;66.40;;;31.05;;
29550;SDS011;16488;52.396;10.696;2022-12-07T00:57:14;65.45;;;30.10;;
29550;SDS011;16488;52.396;10.696;2022-12-07T00:59:40;70.50;;;32.22;;
29550;SDS011;16488;52.396;10.696;2022-12-07T01:02:06;66.13;;;32.45;;
29550;SDS011;16488;52.396;10.696;2022-12-07T01:04:33;74.45;;;34.13;;
29550;SDS011;16488;52.396;10.696;2022-12-07T01:06:59;74.57;;;34.45;;
29550;SDS011;16488;52.396;10.696;2022-12-07T01:09:25;72.90;;;33.25;;
29550;SDS011;16488;52.396;10.696;2022-12-07T01:11:51;74.80;;;35.08;;
29550;SDS011;16488;52.396;10.696;2022-12-07T01:14:17;77.32;;;34.70;;
29550;SDS011;16488;52.396;10.696;2022-12-07T01:16:43;85.45;;;35.17;;
29550;SDS011;16488;52.396;10.696;2022-12-07T01:19:09;82.72;;;35.78;;
29550;SDS011;16488;52.396;10.696;2022-12-07T01:21:35;83.13;;;36.60;;
29550;SDS011;16488;52.396;10.696;2022-12-07T01:24:03;88.70;;;35.90;;
29550;SDS011;16488;52.396;10.696;2022-12-07T01:26:29;87.55;;;38.47;;
29550;SDS011;16488;52.396;10.696;2022-12-07T01:28:55;84.80;;;35.40;;
29550;SDS011;16488;52.396;10.696;2022-12-07T01:31:24;95.53;;;38.72;;
29550;SDS011;16488;52.396;10.696;2022-12-07T01:33:52;91.85;;;36.45;;
29550;SDS011;16488;52.396;10.696;2022-12-07T01:36:19;97.30;;;41.13;;
29550;SDS011;16488;52.396;10.696;2022-12-07T01:38:45;104.53;;;40.08;;
29550;SDS011;16488;52.396;10.696;2022-12-07T01:41:12;106.18;;;41.47;;
29550;SDS011;16488;52.396;10.696;2022-12-07T01:44:06;111.32;;;38.22;;
29550;SDS011;16488;52.396;10.696;2022-12-07T01:46:26;102.53;;;38.67;;
29550;SDS011;16488;52.396;10.696;2022-12-07T01:51:18;96.75;;;38.75;;
29550;SDS011;16488;52.396;10.696;2022-12-07T01:53:44;100.90;;;38.35;;
29550;SDS011;16488;52.396;10.696;2022-12-07T01:56:12;97.65;;;37.90;;
29550;SDS011;16488;52.396;10.696;2022-12-07T01:58:41;99.72;;;39.65;;
29550;SDS011;16488;52.396;10.696;2022-12-07T02:01:07;109.20;;;40.03;;
29550;SDS011;16488;52.396;10.696;2022-12-07T02:03:38;111.45;;;41.47;;
29550;SDS011;16488;52.396;10.696;2022-12-07T02:06:05;99.32;;;40.40;;
29550;SDS011;16488;52.396;10.696;2022-12-07T02:08:32;105.32;;;41.60;;
29550;SDS011;16488;52.396;10.696;2022-12-07T02:10:59;98.78;;;39.83;;
29550;SDS011;16488;52.396;10.696;2022-12-07T02:13:26;106.68;;;40.90;;
29550;SDS011;16488;52.396;10.696;2022-12-07T02:18:43;94.05;;;38.22;;
29550;SDS011;16488;52.396;10.696;2022-12-07T02:21:11;94.30;;;38.70;;
29550;SDS011;16488;52.396;10.696;2022-12-07T02:29:04;105.10;;;43.55;;
29550;SDS011;16488;52.396;10.696;2022-12-07T02:31:36;94.88;;;38.30;;
29550;SDS011;16488;52.396;10.696;2022-12-07T02:34:09;96.32;;;41.33;;
29550;SDS011;16488;52.396;10.696;2022-12-07T02:36:39;99.75;;;40.58;;
29550;SDS011;16488;52.396;10.696;2022-12-07T02:39:07;101.82;;;41.38;;
29550;SDS011;16488;52.396;10.696;2022-12-07T02:41:36;114.88;;;45.25;;
29550;SDS011;16488;52.396;10.696;2022-12-07T02:44:04;101.93;;;41.63;;
29550;SDS011;16488;52.396;10.696;2022-12-07T02:46:34;99.03;;;42.90;;
29550;SDS011;16488;52.396;10.696;2022-12-07T02:49:01;97.93;;;41.42;;
29550;SDS011;16488;52.396;10.696;2022-12-07T02:51:31;105.78;;;45.03;;
29550;SDS011;16488;52.396;10.696;2022-12-07T02:53:58;97.60;;;43.65;;
29550;SDS011;16488;52.396;10.696;2022-12-07T02:58:53;97.72;;;40.47;;
29550;SDS011;16488;52.396;10.696;2022-12-07T03:01:27;95.60;;;39.42;;
29550;SDS011;16488;52.396;10.696;2022-12-07T03:03:58;95.88;;;41.92;;
29550;SDS011;16488;52.396;10.696;2022-12-07T03:06:28;96.95;;;42.28;;
29550;SDS011;16488;52.396;10.696;2022-12-07T03:09:10;94.25;;;41.90;;
29550;SDS011;16488;52.396;10.696;2022-12-07T03:11:46;90.82;;;42.15;;
29550;SDS011;16488;52.396;10.696;2022-12-07T03:14:27;100.32;;;45.03;;
29550;SDS011;16488;52.396;10.696;2022-12-07T03:16:59;93.43;;;39.35;;
29550;SDS011;16488;52.396;10.696;2022-12-07T03:19:26;93.28;;;41.30;;
29550;SDS011;16488;52.396;10.696;2022-12-07T03:22:08;93.90;;;40.83;;
29550;SDS011;16488;52.396;10.696;2022-12-07T03:24:41;92.78;;;39.95;;
29550;SDS011;16488;52.396;10.696;2022-12-07T03:29:44;82.53;;;36.67;;
29550;SDS011;16488;52.396;10.696;2022-12-07T03:32:23;87.00;;;39.53;;
29550;SDS011;16488;52.396;10.696;2022-12-07T03:37:36;85.85;;;40.35;;
29550;SDS011;16488;52.396;10.696;2022-12-07T03:42:30;81.50;;;36.28;;
29550;SDS011;16488;52.396;10.696;2022-12-07T03:44:56;71.97;;;32.85;;
29550;SDS011;16488;52.396;10.696;2022-12-07T03:47:42;65.40;;;33.03;;
29550;SDS011;16488;52.396;10.696;2022-12-07T03:50:11;80.63;;;37.00;;
29550;SDS011;16488;52.396;10.696;2022-12-07T03:53:14;81.20;;;36.72;;
29550;SDS011;16488;52.396;10.696;2022-12-07T03:55:35;70.18;;;34.72;;
29550;SDS011;16488;52.396;10.696;2022-12-07T03:58:10;70.50;;;33.53;;
29550;SDS011;16488;52.396;10.696;2022-12-07T04:00:37;60.05;;;31.20;;
29550;SDS011;16488;52.396;10.696;2022-12-07T04:03:03;61.00;;;30.17;;
29550;SDS011;16488;52.396;10.696;2022-12-07T04:05:29;56.05;;;27.33;;
29550;SDS011;16488;52.396;10.696;2022-12-07T04:07:55;50.92;;;24.73;;
29550;SDS011;16488;52.396;10.696;2022-12-07T04:10:21;54.00;;;26.08;;
29550;SDS011;16488;52.396;10.696;2022-12-07T04:12:47;44.90;;;21.08;;
29550;SDS011;16488;52.396;10.696;2022-12-07T04:15:13;47.58;;;21.67;;
29550;SDS011;16488;52.396;10.696;2022-12-07T04:17:39;42.90;;;19.77;;
29550;SDS011;16488;52.396;10.696;2022-12-07T04:20:05;43.63;;;21.77;;
29550;SDS011;16488;52.396;10.696;2022-12-07T04:22:31;40.00;;;21.00;;
29550;SDS011;16488;52.396;10.696;2022-12-07T04:24:57;49.38;;;20.77;;
29550;SDS011;16488;52.396;10.696;2022-12-07T04:27:23;41.47;;;20.42;;
29550;SDS011;16488;52.396;10.696;2022-12-07T04:29:49;41.70;;;21.10;;
29550;SDS011;16488;52.396;10.696;2022-12-07T04:32:15;42.83;;;20.38;;
29550;SDS011;16488;52.396;10.696;2022-12-07T04:34:41;39.70;;;20.50;;
29550;SDS011;16488;52.396;10.696;2022-12-07T04:37:07;38.40;;;18.35;;
29550;SDS011;16488;52.396;10.696;2022-12-07T04:39:33;48.90;;;19.75;;
29550;SDS011;16488;52.396;10.696;2022-12-07T04:44:25;35.85;;;17.83;;
29550;SDS011;16488;52.396;10.696;2022-12-07T04:46:51;32.05;;;17.45;;
29550;SDS011;16488;52.396;10.696;2022-12-07T04:49:17;35.15;;;17.67;;
29550;SDS011;16488;52.396;10.696;2022-12-07T04:51:44;40.65;;;18.85;;
29550;SDS011;16488;52.396;10.696;2022-12-07T04:54:10;34.58;;;17.85;;
29550;SDS011;16488;52.396;10.696;2022-12-07T04:56:36;34.28;;;18.05;;
29550;SDS011;16488;52.396;10.696;2022-12-07T05:01:28;72.15;;;21.45;;
29550;SDS011;16488;52.396;10.696;2022-12-07T05:03:54;42.45;;;16.77;;
29550;SDS011;16488;52.396;10.696;2022-12-07T05:06:20;29.27;;;16.40;;
29550;SDS011;16488;52.396;10.696;2022-12-07T05:08:46;35.97;;;17.92;;
29550;SDS011;16488;52.396;10.696;2022-12-07T05:11:13;36.35;;;16.73;;
29550;SDS011;16488;52.396;10.696;2022-12-07T05:13:59;27.00;;;15.38;;
29550;SDS011;16488;52.396;10.696;2022-12-07T05:16:25;34.50;;;16.20;;
29550;SDS011;16488;52.396;10.696;2022-12-07T05:21:17;29.83;;;14.77;;
29550;SDS011;16488;52.396;10.696;2022-12-07T05:23:43;33.63;;;15.98;;
29550;SDS011;16488;52.396;10.696;2022-12-07T05:26:09;29.92;;;14.77;;
29550;SDS011;16488;52.396;10.696;2022-12-07T05:28:35;36.63;;;15.98;;
29550;SDS011;16488;52.396;10.696;2022-12-07T05:31:01;29.33;;;14.80;;
29550;SDS011;16488;52.396;10.696;2022-12-07T05:35:53;35.78;;;14.65;;
29550;SDS011;16488;52.396;10.696;2022-12-07T05:38:19;29.00;;;12.95;;
29550;SDS011;16488;52.396;10.696;2022-12-07T05:40:45;36.72;;;13.55;;
29550;SDS011;16488;52.396;10.696;2022-12-07T05:43:11;32.15;;;13.80;;
29550;SDS011;16488;52.396;10.696;2022-12-07T05:45:37;30.23;;;14.00;;
29550;SDS011;16488;52.396;10.696;2022-12-07T05:48:03;30.60;;;14.95;;
29550;SDS011;16488;52.396;10.696;2022-12-07T05:50:29;28.10;;;15.07;;
29550;SDS011;16488;52.396;10.696;2022-12-07T05:52:55;31.25;;;13.70;;
29550;SDS011;16488;52.396;10.696;2022-12-07T05:55:20;33.47;;;15.60;;
29550;SDS011;16488;52.396;10.696;2022-12-07T05:57:46;27.90;;;13.35;;
29550;SDS011;16488;52.396;10.696;2022-12-07T06:00:31;28.48;;;13.48;;
29550;SDS011;16488;52.396;10.696;2022-12-07T06:02:58;27.30;;;14.18;;
29550;SDS011;16488;52.396;10.696;2022-12-07T06:05:23;30.95;;;14.95;;
29550;SDS011;16488;52.396;10.696;2022-12-07T06:07:49;26.05;;;13.70;;
29550;SDS011;16488;52.396;10.696;2022-12-07T06:10:15;33.30;;;15.88;;
29550;SDS011;16488;52.396;10.696;2022-12-07T06:12:41;32.75;;;13.82;;
29550;SDS011;16488;52.396;10.696;2022-12-07T06:15:10;28.85;;;14.18;;
29550;SDS011;16488;52.396;10.696;2022-12-07T06:17:38;27.02;;;14.77;;
29550;SDS011;16488;52.396;10.696;2022-12-07T06:20:05;28.73;;;14.45;;
29550;SDS011;16488;52.396;10.696;2022-12-07T06:22:31;31.50;;;14.52;;
29550;SDS011;16488;52.396;10.696;2022-12-07T06:24:57;31.45;;;15.07;;
29550;SDS011;16488;52.396;10.696;2022-12-07T06:27:23;33.38;;;14.40;;
29550;SDS011;16488;52.396;10.696;2022-12-07T06:29:49;34.33;;;15.18;;
29550;SDS011;16488;52.396;10.696;2022-12-07T06:32:14;25.88;;;14.43;;
29550;SDS011;16488;52.396;10.696;2022-12-07T06:34:41;26.75;;;13.15;;
29550;SDS011;16488;52.396;10.696;2022-12-07T06:37:07;31.80;;;13.73;;
29550;SDS011;16488;52.396;10.696;2022-12-07T06:39:33;29.60;;;14.30;;
29550;SDS011;16488;52.396;10.696;2022-12-07T06:41:59;30.33;;;14.32;;
29550;SDS011;16488;52.396;10.696;2022-12-07T06:44:25;31.25;;;13.35;;
29550;SDS011;16488;52.396;10.696;2022-12-07T06:49:17;24.88;;;13.35;;
29550;SDS011;16488;52.396;10.696;2022-12-07T06:51:43;30.13;;;13.43;;
29550;SDS011;16488;52.396;10.696;2022-12-07T06:54:10;28.65;;;14.07;;
29550;SDS011;16488;52.396;10.696;2022-12-07T06:56:36;24.98;;;12.88;;
29550;SDS011;16488;52.396;10.696;2022-12-07T07:01:28;29.35;;;12.13;;
29550;SDS011;16488;52.396;10.696;2022-12-07T07:03:54;23.35;;;10.57;;
29550;SDS011;16488;52.396;10.696;2022-12-07T07:06:20;20.63;;;10.52;;
29550;SDS011;16488;52.396;10.696;2022-12-07T07:08:46;20.67;;;9.60;;
29550;SDS011;16488;52.396;10.696;2022-12-07T07:11:12;17.50;;;9.52;;
29550;SDS011;16488;52.396;10.696;2022-12-07T07:13:38;25.55;;;11.13;;
29550;SDS011;16488;52.396;10.696;2022-12-07T07:16:05;16.40;;;9.52;;
29550;SDS011;16488;52.396;10.696;2022-12-07T07:18:31;14.60;;;8.23;;
29550;SDS011;16488;52.396;10.696;2022-12-07T07:20:57;17.13;;;8.70;;
29550;SDS011;16488;52.396;10.696;2022-12-07T07:23:23;18.13;;;8.85;;
29550;SDS011;16488;52.396;10.696;2022-12-07T07:28:15;18.55;;;8.13;;
29550;SDS011;16488;52.396;10.696;2022-12-07T07:30:41;20.17;;;10.27;;
29550;SDS011;16488;52.396;10.696;2022-12-07T07:33:07;19.42;;;10.70;;
29550;SDS011;16488;52.396;10.696;2022-12-07T07:35:34;15.85;;;9.15;;
29550;SDS011;16488;52.396;10.696;2022-12-07T07:38:00;18.45;;;10.13;;
29550;SDS011;16488;52.396;10.696;2022-12-07T07:42:54;20.95;;;10.13;;
29550;SDS011;16488;52.396;10.696;2022-12-07T07:47:46;18.75;;;10.50;;
29550;SDS011;16488;52.396;10.696;2022-12-07T07:50:12;16.33;;;9.57;;
29550;SDS011;16488;52.396;10.696;2022-12-07T07:52:38;17.27;;;9.32;;
29550;SDS011;16488;52.396;10.696;2022-12-07T07:57:30;19.58;;;9.82;;
29550;SDS011;16488;52.396;10.696;2022-12-07T07:59:56;20.95;;;9.27;;
29550;SDS011;16488;52.396;10.696;2022-12-07T08:02:22;19.92;;;11.13;;
29550;SDS011;16488;52.396;10.696;2022-12-07T08:04:48;21.33;;;10.93;;
29550;SDS011;16488;52.396;10.696;2022-12-07T08:09:41;20.30;;;10.60;;
29550;SDS011;16488;52.396;10.696;2022-12-07T08:14:33;26.60;;;11.60;;
29550;SDS011;16488;52.396;10.696;2022-12-07T08:19:25;30.20;;;13.05;;
29550;SDS011;16488;52.396;10.696;2022-12-07T08:21:50;29.73;;;14.15;;
29550;SDS011;16488;52.396;10.696;2022-12-07T08:24:17;29.05;;;12.93;;
29550;SDS011;16488;52.396;10.696;2022-12-07T08:26:43;28.55;;;13.77;;
29550;SDS011;16488;52.396;10.696;2022-12-07T08:29:09;33.30;;;11.57;;
29550;SDS011;16488;52.396;10.696;2022-12-07T08:31:35;25.08;;;10.73;;
29550;SDS011;16488;52.396;10.696;2022-12-07T08:34:01;22.85;;;11.65;;
29550;SDS011;16488;52.396;10.696;2022-12-07T08:36:27;22.17;;;11.73;;
29550;SDS011;16488;52.396;10.696;2022-12-07T08:38:53;35.05;;;12.77;;
29550;SDS011;16488;52.396;10.696;2022-12-07T08:41:19;34.35;;;11.07;;
29550;SDS011;16488;52.396;10.696;2022-12-07T08:43:45;20.83;;;10.43;;
29550;SDS011;16488;52.396;10.696;2022-12-07T08:48:41;25.50;;;12.25;;
29550;SDS011;16488;52.396;10.696;2022-12-07T08:51:08;21.55;;;11.18;;
29550;SDS011;16488;52.396;10.696;2022-12-07T08:53:34;24.63;;;10.90;;
29550;SDS011;16488;52.396;10.696;2022-12-07T08:56:00;27.67;;;10.38;;
29550;SDS011;16488;52.396;10.696;2022-12-07T08:58:26;18.77;;;10.45;;
29550;SDS011;16488;52.396;10.696;2022-12-07T09:00:52;26.75;;;10.45;;
29550;SDS011;16488;52.396;10.696;2022-12-07T09:03:18;21.70;;;10.18;;
29550;SDS011;16488;52.396;10.696;2022-12-07T09:05:44;20.88;;;9.90;;
29550;SDS011;16488;52.396;10.696;2022-12-07T09:08:10;20.70;;;10.15;;
29550;SDS011;16488;52.396;10.696;2022-12-07T09:10:36;20.75;;;10.30;;
29550;SDS011;16488;52.396;10.696;2022-12-07T09:13:02;21.38;;;10.50;;
29550;SDS011;16488;52.396;10.696;2022-12-07T09:15:28;20.23;;;10.48;;
29550;SDS011;16488;52.396;10.696;2022-12-07T09:17:55;20.17;;;10.93;;
29550;SDS011;16488;52.396;10.696;2022-12-07T09:22:47;22.70;;;9.65;;
29550;SDS011;16488;52.396;10.696;2022-12-07T09:27:39;24.20;;;9.30;;
29550;SDS011;16488;52.396;10.696;2022-12-07T09:30:05;15.18;;;8.65;;
29550;SDS011;16488;52.396;10.696;2022-12-07T09:32:31;17.27;;;9.68;;
29550;SDS011;16488;52.396;10.696;2022-12-07T09:34:57;18.88;;;9.52;;
29550;SDS011;16488;52.396;10.696;2022-12-07T09:37:23;16.58;;;8.65;;
29550;SDS011;16488;52.396;10.696;2022-12-07T09:39:49;18.92;;;8.48;;
29550;SDS011;16488;52.396;10.696;2022-12-07T09:42:35;11.45;;;7.10;;
29550;SDS011;16488;52.396;10.696;2022-12-07T09:45:02;11.27;;;7.25;;
29550;SDS011;16488;52.396;10.696;2022-12-07T09:47:30;16.67;;;6.40;;
29550;SDS011;16488;52.396;10.696;2022-12-07T09:49:59;23.23;;;6.72;;
29550;SDS011;16488;52.396;10.696;2022-12-07T09:52:26;16.33;;;6.65;;
29550;SDS011;16488;52.396;10.696;2022-12-07T09:54:52;12.85;;;6.63;;
29550;SDS011;16488;52.396;10.696;2022-12-07T09:57:25;13.05;;;6.70;;
29550;SDS011;16488;52.396;10.696;2022-12-07T09:59:54;8.50;;;5.90;;
29550;SDS011;16488;52.396;10.696;2022-12-07T10:02:24;13.38;;;5.93;;
29550;SDS011;16488;52.396;10.696;2022-12-07T10:04:52;13.55;;;6.35;;
29550;SDS011;16488;52.396;10.696;2022-12-07T10:07:18;12.95;;;7.20;;
29550;SDS011;16488;52.396;10.696;2022-12-07T10:09:45;22.23;;;9.80;;
29550;SDS011;16488;52.396;10.696;2022-12-07T10:12:11;14.98;;;7.30;;
29550;SDS011;16488;52.396;10.696;2022-12-07T10:14:39;19.77;;;7.40;;
29550;SDS011;16488;52.396;10.696;2022-12-07T10:18:06;12.02;;;7.32;;
29550;SDS011;16488;52.396;10.696;2022-12-07T10:23:05;14.18;;;6.72;;
29550;SDS011;16488;52.396;10.696;2022-12-07T10:25:32;15.23;;;6.07;;
29550;SDS011;16488;52.396;10.696;2022-12-07T10:31:20;11.25;;;7.57;;
29550;SDS011;16488;52.396;10.696;2022-12-07T10:35:57;10.40;;;5.65;;
29550;SDS011;16488;52.396;10.696;2022-12-07T10:38:23;10.30;;;5.07;;
29550;SDS011;16488;52.396;10.696;2022-12-07T10:40:54;11.00;;;6.18;;
29550;SDS011;16488;52.396;10.696;2022-12-07T10:43:28;17.40;;;6.03;;
29550;SDS011;16488;52.396;10.696;2022-12-07T10:53:28;8.45;;;4.20;;
29550;SDS011;16488;52.396;10.696;2022-12-07T10:58:31;15.77;;;5.00;;
29550;SDS011;16488;52.396;10.696;2022-12-07T11:06:16;15.23;;;3.53;;
29550;SDS011;16488;52.396;10.696;2022-12-07T11:09:04;13.48;;;3.80;;
29550;SDS011;16488;52.396;10.696;2022-12-07T11:19:07;8.40;;;3.67;;
29550;SDS011;16488;52.396;10.696;2022-12-07T11:21:52;8.82;;;3.95;;
29550;SDS011;16488;52.396;10.696;2022-12-07T11:24:31;6.70;;;3.30;;
29550;SDS011;16488;52.396;10.696;2022-12-07T11:32:49;8.55;;;3.20;;
29550;SDS011;16488;52.396;10.696;2022-12-07T11:35:21;6.07;;;2.90;;
29550;SDS011;16488;52.396;10.696;2022-12-07T11:37:47;7.75;;;3.47;;
29550;SDS011;16488;52.396;10.696;2022-12-07T11:40:20;19.38;;;3.45;;
29550;SDS011;16488;52.396;10.696;2022-12-07T11:42:50;9.30;;;2.97;;
29550;SDS011;16488;52.396;10.696;2022-12-07T11:45:23;10.80;;;3.00;;
29550;SDS011;16488;52.396;10.696;2022-12-07T11:47:54;13.57;;;2.60;;
29550;SDS011;16488;52.396;10.696;2022-12-07T11:50:24;6.57;;;2.80;;
29550;SDS011;16488;52.396;10.696;2022-12-07T11:55:56;11.38;;;2.33;;
29550;SDS011;16488;52.396;10.696;2022-12-07T11:58:29;9.82;;;2.65;;
29550;SDS011;16488;52.396;10.696;2022-12-07T12:03:48;7.20;;;2.88;;
29550;SDS011;16488;52.396;10.696;2022-12-07T12:06:15;14.15;;;2.83;;
29550;SDS011;16488;52.396;10.696;2022-12-07T12:19:10;7.43;;;2.40;;
29550;SDS011;16488;52.396;10.696;2022-12-07T12:21:40;9.23;;;2.55;;
29550;SDS011;16488;52.396;10.696;2022-12-07T12:24:12;5.72;;;2.33;;
29550;SDS011;16488;52.396;10.696;2022-12-07T12:26:40;5.75;;;2.22;;
29550;SDS011;16488;52.396;10.696;2022-12-07T12:29:28;9.52;;;2.58;;
29550;SDS011;16488;52.396;10.696;2022-12-07T12:32:12;7.22;;;2.40;;
29550;SDS011;16488;52.396;10.696;2022-12-07T12:34:40;6.07;;;2.40;;
29550;SDS011;16488;52.396;10.696;2022-12-07T12:42:49;9.50;;;2.85;;
29550;SDS011;16488;52.396;10.696;2022-12-07T12:45:28;8.52;;;2.58;;
29550;SDS011;16488;52.396;10.696;2022-12-07T12:48:01;7.15;;;2.80;;
29550;SDS011;16488;52.396;10.696;2022-12-07T12:50:29;7.70;;;2.58;;
29550;SDS011;16488;52.396;10.696;2022-12-07T12:52:57;8.25;;;2.75;;
29550;SDS011;16488;52.396;10.696;2022-12-07T13:00:49;8.27;;;3.33;;
29550;SDS011;16488;52.396;10.696;2022-12-07T13:03:34;8.63;;;2.97;;
29550;SDS011;16488;52.396;10.696;2022-12-07T13:06:19;12.23;;;2.33;;
29550;SDS011;16488;52.396;10.696;2022-12-07T13:08:45;8.45;;;1.80;;
29550;SDS011;16488;52.396;10.696;2022-12-07T13:13:38;7.10;;;2.05;;
29550;SDS011;16488;52.396;10.696;2022-12-07T13:26:01;9.18;;;2.13;;
29550;SDS011;16488;52.396;10.696;2022-12-07T13:28:32;6.57;;;2.00;;
29550;SDS011;16488;52.396;10.696;2022-12-07T13:31:01;6.72;;;2.00;;
29550;SDS011;16488;52.396;10.696;2022-12-07T13:33:29;8.80;;;2.90;;
29550;SDS011;16488;52.396;10.696;2022-12-07T13:35:55;8.60;;;1.67;;
29550;SDS011;16488;52.396;10.696;2022-12-07T13:38:34;8.55;;;2.40;;
29550;SDS011;16488;52.396;10.696;2022-12-07T13:41:15;5.50;;;1.67;;
29550;SDS011;16488;52.396;10.696;2022-12-07T13:43:42;13.98;;;1.77;;
29550;SDS011;16488;52.396;10.696;2022-12-07T13:46:08;11.60;;;2.70;;
29550;SDS011;16488;52.396;10.696;2022-12-07T13:48:43;6.00;;;2.08;;
29550;SDS011;16488;52.396;10.696;2022-12-07T13:51:16;4.22;;;2.25;;
29550;SDS011;16488;52.396;10.696;2022-12-07T13:53:46;7.15;;;1.92;;
29550;SDS011;16488;52.396;10.696;2022-12-07T13:56:12;3.05;;;1.77;;
29550;SDS011;16488;52.396;10.696;2022-12-07T13:58:40;6.20;;;1.98;;
29550;SDS011;16488;52.396;10.696;2022-12-07T14:01:07;6.20;;;2.47;;
29550;SDS011;16488;52.396;10.696;2022-12-07T14:03:34;4.82;;;2.25;;
29550;SDS011;16488;52.396;10.696;2022-12-07T14:06:34;7.13;;;2.35;;
29550;SDS011;16488;52.396;10.696;2022-12-07T14:09:09;5.55;;;1.85;;
29550;SDS011;16488;52.396;10.696;2022-12-07T14:11:35;9.30;;;3.20;;
29550;SDS011;16488;52.396;10.696;2022-12-07T14:14:01;9.43;;;2.20;;
29550;SDS011;16488;52.396;10.696;2022-12-07T14:18:54;6.15;;;2.70;;
29550;SDS011;16488;52.396;10.696;2022-12-07T14:21:21;5.53;;;2.55;;
29550;SDS011;16488;52.396;10.696;2022-12-07T14:26:32;5.35;;;2.50;;
29550;SDS011;16488;52.396;10.696;2022-12-07T14:29:32;11.85;;;3.25;;
29550;SDS011;16488;52.396;10.696;2022-12-07T14:31:51;11.93;;;3.60;;
29550;SDS011;16488;52.396;10.696;2022-12-07T14:34:19;15.30;;;5.10;;
29550;SDS011;16488;52.396;10.696;2022-12-07T14:36:45;20.95;;;4.57;;
29550;SDS011;16488;52.396;10.696;2022-12-07T14:39:11;14.43;;;6.03;;
29550;SDS011;16488;52.396;10.696;2022-12-07T14:41:37;10.07;;;3.45;;
29550;SDS011;16488;52.396;10.696;2022-12-07T14:44:15;18.25;;;3.30;;
29550;SDS011;16488;52.396;10.696;2022-12-07T14:46:41;16.83;;;3.17;;
29550;SDS011;16488;52.396;10.696;2022-12-07T14:49:07;8.35;;;1.42;;
29550;SDS011;16488;52.396;10.696;2022-12-07T14:51:33;4.63;;;1.50;;
29550;SDS011;16488;52.396;10.696;2022-12-07T14:54:01;6.78;;;1.63;;
29550;SDS011;16488;52.396;10.696;2022-12-07T14:56:29;8.45;;;1.95;;
29550;SDS011;16488;52.396;10.696;2022-12-07T14:58:55;5.93;;;2.67;;
29550;SDS011;16488;52.396;10.696;2022-12-07T15:01:21;8.55;;;2.08;;
29550;SDS011;16488;52.396;10.696;2022-12-07T15:03:47;8.43;;;2.58;;
29550;SDS011;16488;52.396;10.696;2022-12-07T15:06:14;9.10;;;2.38;;
29550;SDS011;16488;52.396;10.696;2022-12-07T15:08:40;15.50;;;3.05;;
29550;SDS011;16488;52.396;10.696;2022-12-07T15:13:32;10.85;;;3.47;;
29550;SDS011;16488;52.396;10.696;2022-12-07T15:16:18;7.10;;;3.08;;
29550;SDS011;16488;52.396;10.696;2022-12-07T15:18:45;18.23;;;3.47;;
29550;SDS011;16488;52.396;10.696;2022-12-07T15:21:15;9.32;;;3.08;;
29550;SDS011;16488;52.396;10.696;2022-12-07T15:23:41;13.68;;;3.28;;
29550;SDS011;16488;52.396;10.696;2022-12-07T15:26:07;9.98;;;3.65;;
29550;SDS011;16488;52.396;10.696;2022-12-07T15:28:35;10.98;;;3.80;;
29550;SDS011;16488;52.396;10.696;2022-12-07T15:31:01;7.05;;;2.70;;
29550;SDS011;16488;52.396;10.696;2022-12-07T15:33:27;10.80;;;3.15;;
29550;SDS011;16488;52.396;10.696;2022-12-07T15:35:53;5.13;;;3.47;;
29550;SDS011;16488;52.396;10.696;2022-12-07T15:38:19;7.97;;;2.42;;
29550;SDS011;16488;52.396;10.696;2022-12-07T15:40:48;10.60;;;3.58;;
29550;SDS011;16488;52.396;10.696;2022-12-07T15:43:14;9.10;;;3.65;;
29550;SDS011;16488;52.396;10.696;2022-12-07T15:45:58;12.77;;;3.17;;
29550;SDS011;16488;52.396;10.696;2022-12-07T15:48:24;16.38;;;5.38;;
29550;SDS011;16488;52.396;10.696;2022-12-07T15:50:50;33.90;;;20.92;;
29550;SDS011;16488;52.396;10.696;2022-12-07T15:55:42;14.40;;;7.20;;
29550;SDS011;16488;52.396;10.696;2022-12-07T15:58:08;10.20;;;3.90;;
29550;SDS011;16488;52.396;10.696;2022-12-07T16:00:34;8.55;;;3.22;;
29550;SDS011;16488;52.396;10.696;2022-12-07T16:03:00;11.43;;;3.30;;
29550;SDS011;16488;52.396;10.696;2022-12-07T16:05:26;13.25;;;3.83;;
29550;SDS011;16488;52.396;10.696;2022-12-07T16:07:52;18.02;;;4.97;;
29550;SDS011;16488;52.396;10.696;2022-12-07T16:10:18;14.93;;;5.20;;
29550;SDS011;16488;52.396;10.696;2022-12-07T16:12:44;26.38;;;5.85;;
29550;SDS011;16488;52.396;10.696;2022-12-07T16:15:10;13.65;;;6.78;;
29550;SDS011;16488;52.396;10.696;2022-12-07T16:17:36;15.77;;;6.90;;
29550;SDS011;16488;52.396;10.696;2022-12-07T16:20:02;15.60;;;6.80;;
29550;SDS011;16488;52.396;10.696;2022-12-07T16:22:29;10.50;;;5.45;;
29550;SDS011;16488;52.396;10.696;2022-12-07T16:24:55;16.52;;;5.28;;
29550;SDS011;16488;52.396;10.696;2022-12-07T16:27:21;10.73;;;5.38;;
29550;SDS011;16488;52.396;10.696;2022-12-07T16:29:46;12.38;;;5.00;;
29550;SDS011;16488;52.396;10.696;2022-12-07T16:32:12;13.70;;;5.97;;
29550;SDS011;16488;52.396;10.696;2022-12-07T16:34:39;12.05;;;5.00;;
29550;SDS011;16488;52.396;10.696;2022-12-07T16:37:05;19.48;;;9.18;;
29550;SDS011;16488;52.396;10.696;2022-12-07T16:39:31;24.25;;;11.73;;
29550;SDS011;16488;52.396;10.696;2022-12-07T16:41:57;22.08;;;11.00;;
29550;SDS011;16488;52.396;10.696;2022-12-07T16:44:24;54.00;;;20.08;;
29550;SDS011;16488;52.396;10.696;2022-12-07T16:46:50;37.30;;;13.90;;
29550;SDS011;16488;52.396;10.696;2022-12-07T16:49:16;23.98;;;11.13;;
29550;SDS011;16488;52.396;10.696;2022-12-07T16:51:42;10.00;;;5.32;;
29550;SDS011;16488;52.396;10.696;2022-12-07T16:54:11;11.85;;;5.68;;